BLI weather

Bellingham International Airport
Bellingham, Washington, United States

Public forecast

Using degrees Fahrenheit for public forecast. Weather courtesy of forecast.io.

METAR (pilot weather report)

Retrieved 2019/05/20 00:53 UTC (59 minutes ago):

KBLI 200053Z 17008KT 10SM FEW070 19/10 A2970 RMK AO2 SLP063 T01940100

TAF (pilot weather forecast)

Forecast is more than 12 hours old.

Retrieved 2019/05/19 00:27 UTC (1 day ago):

TAF KBLI 192325Z 2000/2024 19007KT P6SM SCT100 SCT200 FM200400 18008KT P6SM BKN120 BKN200 FM200800 17007KT P6SM BKN060 OVC120 FM201300 16009KT P6SM VCSH BKN035 BKN060 FM201700 17010KT P6SM -SHRA BKN030 OVC050